Time;durP1;ratioP1;P1;durP2;ratioP2;P2;SDS_P1;SDS_P2;PMS_P1;PMS_P2;Temp;Humidity;BMP_temperature;BMP_pressure;BME280_temperature;BME280_humidity;BME280_pressure;Samples;Min_cycle;Max_cycle;Signal;HPM_P1;HPM_P2
2021/07/31 00:01:08;;;;;;;10.35;4.30;;;25.20;66.00;;;;;;4999616;28;20184;-76
2021/07/31 00:03:35;;;;;;;6.43;4.47;;;25.20;66.30;;;;;;5007797;28;20181;-76
2021/07/31 00:06:01;;;;;;;5.10;4.68;;;25.20;66.40;;;;;;5008208;28;20177;-76
2021/07/31 00:08:28;;;;;;;7.75;4.72;;;25.20;66.70;;;;;;5008302;28;20181;-76
2021/07/31 00:10:54;;;;;;;9.20;4.65;;;25.20;66.80;;;;;;5006689;28;20239;-76
2021/07/31 00:13:20;;;;;;;9.43;5.25;;;25.20;67.10;;;;;;5008320;28;20658;-76
2021/07/31 00:15:46;;;;;;;9.10;5.40;;;25.10;67.60;;;;;;5008578;28;20235;-76
2021/07/31 00:18:12;;;;;;;8.20;4.85;;;25.10;67.90;;;;;;4997177;28;20675;-76
2021/07/31 00:20:38;;;;;;;7.57;5.18;;;25.10;67.70;;;;;;5001118;28;20273;-75
2021/07/31 00:23:04;;;;;;;12.00;5.53;;;25.10;68.50;;;;;;5002943;28;20177;-76
2021/07/31 00:25:31;;;;;;;5.72;4.72;;;25.00;68.80;;;;;;5008801;28;20217;-76
2021/07/31 00:27:57;;;;;;;7.25;5.05;;;25.00;68.70;;;;;;5008952;28;20268;-76
2021/07/31 00:30:26;;;;;;;9.32;5.13;;;25.00;69.50;;;;;;5001285;28;20256;-75
2021/07/31 00:32:53;;;;;;;9.43;4.95;;;25.00;69.50;;;;;;5007500;28;20239;-76
2021/07/31 00:35:20;;;;;;;5.45;5.00;;;24.90;69.40;;;;;;5003964;28;20189;-76
2021/07/31 00:37:46;;;;;;;8.40;4.65;;;24.90;69.40;;;;;;5006534;28;20170;-76
2021/07/31 00:40:12;;;;;;;8.38;5.22;;;24.90;69.50;;;;;;5009434;28;20188;-76
2021/07/31 00:42:40;;;;;;;7.40;4.90;;;24.90;69.60;;;;;;5009385;28;20192;-76
2021/07/31 00:45:07;;;;;;;9.23;4.97;;;24.80;69.50;;;;;;5006951;28;20778;-76
2021/07/31 00:47:33;;;;;;;9.60;5.13;;;24.80;69.40;;;;;;5004557;28;20292;-76
2021/07/31 00:49:59;;;;;;;9.38;4.70;;;24.80;69.40;;;;;;5007362;28;20181;-75
2021/07/31 00:52:25;;;;;;;5.40;4.72;;;24.80;69.60;;;;;;5008383;28;20260;-76
2021/07/31 00:54:54;;;;;;;9.07;5.10;;;24.70;70.00;;;;;;5008096;28;20279;-76
2021/07/31 00:57:22;;;;;;;5.28;4.45;;;24.70;69.50;;;;;;5008433;28;20204;-76
2021/07/31 00:59:48;;;;;;;8.88;4.68;;;24.60;69.20;;;;;;4996311;28;20279;-75
2021/07/31 01:02:14;;;;;;;7.55;5.07;;;24.60;69.30;;;;;;5007369;28;20181;-74
2021/07/31 01:04:39;;;;;;;6.15;5.25;;;24.60;69.10;;;;;;5007550;28;20213;-74
2021/07/31 01:07:05;;;;;;;9.82;4.15;;;24.50;68.70;;;;;;5000058;28;20185;-75
2021/07/31 01:09:31;;;;;;;7.03;5.00;;;24.50;69.10;;;;;;5007636;28;20268;-74
2021/07/31 01:11:57;;;;;;;7.18;5.30;;;24.50;69.00;;;;;;5007404;28;20180;-74
2021/07/31 01:14:23;;;;;;;10.55;4.85;;;24.40;68.70;;;;;;4995638;28;20197;-74
2021/07/31 01:16:48;;;;;;;11.50;4.32;;;24.40;68.90;;;;;;5004400;28;20748;-74
2021/07/31 01:19:14;;;;;;;10.07;5.10;;;24.40;69.00;;;;;;5008003;28;20563;-75
2021/07/31 01:21:41;;;;;;;5.82;4.75;;;24.40;69.40;;;;;;5007076;28;20181;-76
2021/07/31 01:24:09;;;;;;;8.63;4.30;;;24.40;69.10;;;;;;4997164;28;20212;-76
2021/07/31 01:26:39;;;;;;;6.18;4.50;;;24.40;69.00;;;;;;5007353;28;20272;-76
2021/07/31 01:29:07;;;;;;;11.40;5.70;;;24.40;69.00;;;;;;5005802;28;20177;-76
2021/07/31 01:31:34;;;;;;;7.05;4.43;;;24.30;69.40;;;;;;5004112;28;20268;-76
2021/07/31 01:34:00;;;;;;;7.07;4.28;;;24.30;69.20;;;;;;5007195;28;20243;-76
2021/07/31 01:36:26;;;;;;;8.73;4.38;;;24.30;69.30;;;;;;5007060;28;20177;-76
2021/07/31 01:38:52;;;;;;;7.03;4.75;;;24.30;69.40;;;;;;5007115;28;20692;-76
2021/07/31 01:41:18;;;;;;;5.15;4.75;;;24.30;69.90;;;;;;5005927;28;20177;-76
2021/07/31 01:43:44;;;;;;;10.98;5.18;;;24.30;70.40;;;;;;5005977;28;20251;-76
2021/07/31 01:46:11;;;;;;;6.80;5.35;;;24.30;70.80;;;;;;5006854;28;20230;-76
2021/07/31 01:48:37;;;;;;;6.68;5.18;;;24.30;70.70;;;;;;5006854;28;20187;-74
2021/07/31 01:51:03;;;;;;;7.53;4.90;;;24.30;71.00;;;;;;5004932;28;20889;-74
2021/07/31 01:53:29;;;;;;;7.47;5.15;;;24.30;71.10;;;;;;5006784;28;20177;-74
2021/07/31 01:55:55;;;;;;;7.22;5.57;;;24.30;71.50;;;;;;5005359;28;20199;-74
2021/07/31 01:58:20;;;;;;;10.30;5.78;;;24.30;71.40;;;;;;4997306;28;20185;-74
2021/07/31 02:00:46;;;;;;;8.63;5.72;;;24.30;72.00;;;;;;5006196;28;20192;-74
2021/07/31 02:03:12;;;;;;;10.38;5.35;;;24.30;72.10;;;;;;5007613;28;20177;-74
2021/07/31 02:05:38;;;;;;;9.55;5.72;;;24.30;72.20;;;;;;5007552;28;20656;-75
2021/07/31 02:08:03;;;;;;;8.57;5.43;;;24.20;72.80;;;;;;5007481;28;20642;-77
2021/07/31 02:10:30;;;;;;;10.23;5.88;;;24.20;72.50;;;;;;5007395;28;20307;-77
2021/07/31 02:12:56;;;;;;;10.18;5.63;;;24.20;73.20;;;;;;5006304;28;20279;-76
2021/07/31 02:15:22;;;;;;;13.45;5.43;;;24.10;72.70;;;;;;4994731;28;20717;-76
2021/07/31 02:17:47;;;;;;;8.18;5.35;;;24.10;72.80;;;;;;5008262;28;20192;-76
2021/07/31 02:20:13;;;;;;;7.70;5.10;;;24.00;72.70;;;;;;5004652;28;20263;-76
2021/07/31 02:22:39;;;;;;;16.05;5.25;;;24.00;72.90;;;;;;4991362;28;20238;-75
2021/07/31 02:25:05;;;;;;;11.82;4.90;;;23.90;73.00;;;;;;4999556;28;20215;-76
2021/07/31 02:27:31;;;;;;;9.70;5.45;;;23.90;73.10;;;;;;5006833;28;20575;-76
2021/07/31 02:29:56;;;;;;;5.95;5.35;;;23.90;73.40;;;;;;5007178;28;20188;-75
2021/07/31 02:32:22;;;;;;;8.65;5.22;;;23.90;73.20;;;;;;5007167;28;20185;-75
2021/07/31 02:34:51;;;;;;;9.13;5.60;;;23.90;73.40;;;;;;5009896;28;20177;-76
2021/07/31 02:37:16;;;;;;;15.95;5.00;;;23.80;73.00;;;;;;5002873;28;20172;-76
2021/07/31 02:39:42;;;;;;;8.32;5.38;;;23.80;73.20;;;;;;5009787;28;20181;-76
2021/07/31 02:42:08;;;;;;;6.00;5.05;;;23.80;73.30;;;;;;5009595;28;20173;-77
2021/07/31 02:44:36;;;;;;;11.15;5.32;;;23.80;73.90;;;;;;5011478;28;20351;-76
2021/07/31 02:47:02;;;;;;;6.63;5.47;;;23.70;73.00;;;;;;5007601;28;20696;-76
2021/07/31 02:49:28;;;;;;;5.65;5.13;;;23.70;73.70;;;;;;5011240;28;20184;-76
2021/07/31 02:51:54;;;;;;;8.50;5.05;;;23.70;73.90;;;;;;5011084;28;20566;-75
2021/07/31 02:54:19;;;;;;;5.43;4.90;;;23.60;73.90;;;;;;5004286;28;20730;-75
2021/07/31 02:56:45;;;;;;;10.50;4.97;;;23.60;74.10;;;;;;5011123;28;20173;-76
2021/07/31 02:59:11;;;;;;;9.55;5.63;;;23.60;74.20;;;;;;5010753;28;20647;-76
2021/07/31 03:01:37;;;;;;;9.20;5.93;;;23.50;74.30;;;;;;5010807;28;20663;-76
2021/07/31 03:04:03;;;;;;;15.07;5.85;;;23.50;74.30;;;;;;5006733;28;20217;-75
2021/07/31 03:06:29;;;;;;;8.52;5.45;;;23.50;74.50;;;;;;5010118;28;20773;-75
2021/07/31 03:08:54;;;;;;;8.25;5.38;;;23.50;74.50;;;;;;5003153;28;20182;-75
2021/07/31 03:11:20;;;;;;;11.15;5.97;;;23.50;74.80;;;;;;5003935;28;20185;-75
2021/07/31 03:13:45;;;;;;;9.32;5.75;;;23.40;74.90;;;;;;5010432;28;20215;-75
2021/07/31 03:16:11;;;;;;;11.48;5.53;;;23.40;74.90;;;;;;5010411;28;20185;-76
2021/07/31 03:18:37;;;;;;;7.15;5.05;;;23.40;74.80;;;;;;5010348;28;20323;-76
2021/07/31 03:21:02;;;;;;;8.38;5.53;;;23.40;75.00;;;;;;5010607;28;20185;-76
2021/07/31 03:23:28;;;;;;;8.80;5.25;;;23.30;75.20;;;;;;5008368;28;20579;-76
2021/07/31 03:25:58;;;;;;;6.60;5.63;;;23.30;75.20;;;;;;5010243;28;20339;-75
2021/07/31 03:28:25;;;;;;;10.77;6.22;;;23.20;75.20;;;;;;5009905;28;20184;-75
2021/07/31 03:30:51;;;;;;;14.15;5.38;;;23.20;75.60;;;;;;5010152;28;20181;-76
2021/07/31 03:33:16;;;;;;;5.53;4.95;;;23.20;75.70;;;;;;5007843;28;20243;-76
2021/07/31 03:35:43;;;;;;;6.88;5.97;;;23.20;75.80;;;;;;5009505;28;20185;-75
2021/07/31 03:38:10;;;;;;;12.95;5.20;;;23.10;76.10;;;;;;5007323;28;20188;-75
2021/07/31 03:40:36;;;;;;;8.90;5.88;;;23.10;75.80;;;;;;5006641;28;20211;-75
2021/07/31 03:43:02;;;;;;;6.88;5.75;;;23.10;76.10;;;;;;5010349;28;20177;-76
2021/07/31 03:45:28;;;;;;;10.38;5.32;;;23.10;76.10;;;;;;5007252;28;20891;-75
2021/07/31 03:47:54;;;;;;;5.93;5.32;;;23.10;76.00;;;;;;5010075;28;20181;-76
2021/07/31 03:50:20;;;;;;;6.50;5.10;;;23.10;76.00;;;;;;5010165;28;20196;-75
2021/07/31 03:52:45;;;;;;;7.38;5.35;;;23.20;76.10;;;;;;5006254;28;20197;-75
2021/07/31 03:55:12;;;;;;;10.88;5.03;;;23.20;76.10;;;;;;5002577;28;20255;-75
2021/07/31 03:57:38;;;;;;;13.25;5.38;;;23.20;76.30;;;;;;5008672;28;20236;-75
2021/07/31 04:00:05;;;;;;;6.53;5.35;;;23.20;76.30;;;;;;5008533;28;20612;-74
2021/07/31 04:02:31;;;;;;;12.75;5.43;;;23.30;75.90;;;;;;5006041;28;20262;-75
2021/07/31 04:04:57;;;;;;;6.70;4.63;;;23.30;76.30;;;;;;5009327;28;20248;-75
2021/07/31 04:07:23;;;;;;;5.80;5.10;;;23.30;76.30;;;;;;5007913;28;20219;-74
2021/07/31 04:09:49;;;;;;;7.85;6.10;;;23.30;76.60;;;;;;5006614;28;20189;-75
2021/07/31 04:12:15;;;;;;;6.68;5.13;;;23.40;76.30;;;;;;4999368;28;20749;-76
2021/07/31 04:14:40;;;;;;;7.40;5.07;;;23.40;76.30;;;;;;5000949;28;20196;-76
2021/07/31 04:17:06;;;;;;;8.05;5.80;;;23.40;76.60;;;;;;5006834;28;20192;-75
2021/07/31 04:19:31;;;;;;;9.13;5.63;;;23.40;76.50;;;;;;5008684;28;20219;-75
2021/07/31 04:21:57;;;;;;;9.63;6.32;;;23.50;76.50;;;;;;5006405;28;20693;-76
2021/07/31 04:24:24;;;;;;;7.18;5.80;;;23.50;76.40;;;;;;5006469;28;20216;-76
2021/07/31 04:26:50;;;;;;;6.22;5.28;;;23.50;76.20;;;;;;5004727;28;20181;-76
2021/07/31 04:29:15;;;;;;;13.00;5.88;;;23.60;76.50;;;;;;5004969;28;20548;-76
2021/07/31 04:31:41;;;;;;;9.93;5.35;;;23.60;76.50;;;;;;5006856;28;20173;-76
2021/07/31 04:34:07;;;;;;;6.57;5.60;;;23.60;76.40;;;;;;5007214;28;20181;-76
2021/07/31 04:36:33;;;;;;;8.18;6.18;;;23.70;76.40;;;;;;5005098;28;20181;-75
2021/07/31 04:38:59;;;;;;;15.98;6.30;;;23.70;76.70;;;;;;5007784;28;20185;-76
2021/07/31 04:41:25;;;;;;;9.63;5.47;;;23.70;76.90;;;;;;5005042;28;20178;-76
2021/07/31 04:43:50;;;;;;;11.00;6.20;;;23.70;77.00;;;;;;5007493;28;20208;-76
2021/07/31 04:46:16;;;;;;;9.98;6.22;;;23.70;77.00;;;;;;5007457;28;20215;-76
2021/07/31 04:48:42;;;;;;;5.93;5.20;;;23.70;77.10;;;;;;5007462;28;20181;-76
2021/07/31 04:51:09;;;;;;;9.57;5.78;;;23.80;77.20;;;;;;4994776;28;20189;-77
2021/07/31 04:53:36;;;;;;;11.02;6.22;;;23.80;76.90;;;;;;5007637;28;20248;-77
2021/07/31 04:56:01;;;;;;;13.00;5.95;;;23.80;76.80;;;;;;4998409;28;20189;-76
2021/07/31 04:58:27;;;;;;;8.82;5.65;;;23.90;76.70;;;;;;5007698;28;20196;-76
2021/07/31 05:00:55;;;;;;;9.90;6.45;;;23.90;76.70;;;;;;5007140;28;20208;-77
2021/07/31 05:03:21;;;;;;;6.93;5.38;;;23.90;76.40;;;;;;5007833;28;20201;-76
2021/07/31 05:05:47;;;;;;;10.18;6.18;;;24.00;76.30;;;;;;5007981;28;20248;-76
2021/07/31 05:08:14;;;;;;;7.53;6.03;;;24.00;76.10;;;;;;5007761;28;20745;-77
2021/07/31 05:10:47;;;;;;;10.50;6.00;;;24.00;76.00;;;;;;5006136;28;20206;-76
2021/07/31 05:13:13;;;;;;;16.00;5.78;;;24.10;76.00;;;;;;5008635;28;20177;-76
2021/07/31 05:15:40;;;;;;;14.30;6.15;;;24.10;75.90;;;;;;5008144;28;20205;-74
2021/07/31 05:18:07;;;;;;;8.30;6.07;;;24.20;75.70;;;;;;5008446;28;20181;-74
2021/07/31 05:20:34;;;;;;;14.88;6.65;;;24.20;75.80;;;;;;4999826;28;20232;-76
2021/07/31 05:23:00;;;;;;;11.65;6.55;;;24.20;76.00;;;;;;5007935;28;20185;-76
2021/07/31 05:25:26;;;;;;;8.65;5.72;;;24.30;75.80;;;;;;5006988;28;20218;-76
2021/07/31 05:27:52;;;;;;;10.15;6.03;;;24.30;75.80;;;;;;5003450;28;20197;-76
2021/07/31 05:30:17;;;;;;;11.50;6.55;;;24.30;75.50;;;;;;5007790;28;20626;-76
2021/07/31 05:32:43;;;;;;;12.93;6.18;;;24.30;77.80;;;;;;5002551;28;20177;-74
2021/07/31 05:35:10;;;;;;;11.32;6.85;;;24.30;76.20;;;;;;5003773;28;20840;-74
2021/07/31 05:37:35;;;;;;;11.18;6.55;;;24.30;76.20;;;;;;5002817;28;20572;-75
2021/07/31 05:40:02;;;;;;;8.93;6.15;;;24.30;77.50;;;;;;5007925;28;20177;-73
2021/07/31 05:42:28;;;;;;;8.07;6.05;;;24.30;75.90;;;;;;5007708;28;20199;-73
2021/07/31 05:44:58;;;;;;;10.77;6.15;;;24.40;75.70;;;;;;5007616;28;20213;-74
2021/07/31 05:47:26;;;;;;;12.80;6.20;;;24.40;75.50;;;;;;5007684;28;20180;-76
2021/07/31 05:49:53;;;;;;;9.52;6.05;;;24.50;75.50;;;;;;5007620;28;20207;-76
2021/07/31 05:52:20;;;;;;;13.18;6.30;;;24.60;75.40;;;;;;5006574;28;20628;-76
2021/07/31 05:54:47;;;;;;;7.63;5.97;;;24.70;75.40;;;;;;5003942;28;20670;-76
2021/07/31 05:57:13;;;;;;;12.35;6.43;;;24.80;75.30;;;;;;5006022;28;20177;-76
2021/07/31 05:59:39;;;;;;;14.75;6.97;;;24.80;75.10;;;;;;5006464;28;20193;-76
2021/07/31 06:02:06;;;;;;;14.30;6.97;;;24.90;75.30;;;;;;5005888;28;20262;-75
2021/07/31 06:04:32;;;;;;;10.20;5.97;;;25.00;74.80;;;;;;4996197;28;20213;-76
2021/07/31 06:07:00;;;;;;;9.65;7.70;;;25.00;75.10;;;;;;4998671;28;20187;-76
2021/07/31 06:09:27;;;;;;;13.95;7.60;;;25.10;74.80;;;;;;5000030;28;20204;-76
2021/07/31 06:11:53;;;;;;;16.10;7.50;;;25.10;76.30;;;;;;5002082;28;20713;-76
2021/07/31 06:14:19;;;;;;;7.35;6.15;;;25.10;74.90;;;;;;5000047;28;20184;-76
2021/07/31 06:16:44;;;;;;;13.18;6.70;;;25.20;74.50;;;;;;5005800;28;20264;-76
2021/07/31 06:19:10;;;;;;;9.20;6.43;;;25.20;74.20;;;;;;5006898;28;20288;-76
2021/07/31 06:21:36;;;;;;;11.02;6.88;;;25.30;75.60;;;;;;5007231;28;20628;-76
2021/07/31 06:24:03;;;;;;;10.20;6.25;;;25.30;74.70;;;;;;5007166;28;20201;-76
2021/07/31 06:26:28;;;;;;;14.27;6.38;;;25.40;74.60;;;;;;5005880;28;20727;-77
2021/07/31 06:28:54;;;;;;;11.48;6.32;;;25.50;75.30;;;;;;5001247;28;20177;-77
2021/07/31 06:31:20;;;;;;;9.57;6.18;;;25.50;74.20;;;;;;4998947;28;20178;-78
2021/07/31 06:33:45;;;;;;;10.88;7.03;;;25.60;74.50;;;;;;5006496;28;20173;-78
2021/07/31 06:36:11;;;;;;;8.65;6.45;;;25.70;74.20;;;;;;5001543;28;20205;-77
2021/07/31 06:38:37;;;;;;;7.45;5.78;;;25.70;74.20;;;;;;5003040;28;20207;-78
2021/07/31 06:41:04;;;;;;;8.45;6.40;;;25.80;73.50;;;;;;5006496;28;20260;-78
2021/07/31 06:43:30;;;;;;;11.38;5.95;;;25.90;73.40;;;;;;5002088;28;20186;-77
2021/07/31 06:45:56;;;;;;;13.60;6.38;;;25.90;73.20;;;;;;4997760;28;20887;-76
2021/07/31 06:48:22;;;;;;;10.23;6.93;;;26.00;72.60;;;;;;5000672;28;20952;-77
2021/07/31 06:50:47;;;;;;;8.23;5.72;;;26.10;72.70;;;;;;5005264;28;20207;-76
2021/07/31 06:53:13;;;;;;;9.68;7.00;;;26.20;72.60;;;;;;4997933;28;20243;-75
2021/07/31 06:55:38;;;;;;;7.57;6.20;;;26.30;72.90;;;;;;4994909;28;20196;-78
2021/07/31 06:58:04;;;;;;;9.10;6.72;;;26.40;72.50;;;;;;4998980;28;20188;-76
2021/07/31 07:00:30;;;;;;;11.40;6.32;;;26.50;72.10;;;;;;5013956;28;20181;-76
2021/07/31 07:02:55;;;;;;;8.65;6.63;;;26.60;72.20;;;;;;5010495;28;20185;-77
2021/07/31 07:05:21;;;;;;;8.95;6.30;;;26.60;72.10;;;;;;5002413;28;20296;-76
2021/07/31 07:07:47;;;;;;;11.38;6.47;;;26.70;71.50;;;;;;5000728;28;20910;-78
2021/07/31 07:10:13;;;;;;;8.73;6.38;;;26.80;71.10;;;;;;5004445;28;20242;-76
2021/07/31 07:12:39;;;;;;;15.05;6.47;;;26.90;71.00;;;;;;4997965;28;20193;-76
2021/07/31 07:15:05;;;;;;;16.98;7.10;;;27.00;70.70;;;;;;5002508;28;20185;-77
2021/07/31 07:17:31;;;;;;;9.23;6.53;;;27.00;70.70;;;;;;5000111;28;20181;-76
2021/07/31 07:19:56;;;;;;;9.88;7.15;;;27.10;71.10;;;;;;5006017;28;20576;-77
2021/07/31 07:22:22;;;;;;;9.88;7.10;;;27.20;70.80;;;;;;4997961;28;20797;-77
2021/07/31 07:24:48;;;;;;;15.32;7.30;;;27.30;70.50;;;;;;5006077;28;20603;-75
2021/07/31 07:27:13;;;;;;;14.88;7.18;;;27.40;70.40;;;;;;5004152;28;20185;-76
2021/07/31 07:29:39;;;;;;;13.40;7.78;;;27.50;70.40;;;;;;5007202;28;20268;-76
2021/07/31 07:32:06;;;;;;;10.52;7.00;;;27.50;70.50;;;;;;5007085;28;20188;-75
2021/07/31 07:34:31;;;;;;;13.05;7.15;;;27.60;70.40;;;;;;5005902;28;20186;-77
2021/07/31 07:36:57;;;;;;;13.45;7.38;;;27.70;70.00;;;;;;4999229;28;20654;-75
2021/07/31 07:39:23;;;;;;;10.60;7.10;;;27.80;69.70;;;;;;5002008;28;20578;-77
2021/07/31 07:41:48;;;;;;;13.07;7.20;;;27.80;69.60;;;;;;5001282;28;20177;-74
2021/07/31 07:44:14;;;;;;;8.15;5.72;;;27.90;69.60;;;;;;5003533;28;20292;-74
2021/07/31 07:46:40;;;;;;;12.93;8.13;;;28.00;70.20;;;;;;4998745;28;20178;-79
2021/07/31 07:49:05;;;;;;;11.32;6.63;;;28.10;69.10;;;;;;5002540;28;20277;-81
2021/07/31 07:51:31;;;;;;;10.70;7.38;;;28.20;68.80;;;;;;5007054;28;20271;-75
2021/07/31 07:53:56;;;;;;;13.55;7.60;;;28.30;68.90;;;;;;5006891;28;20177;-77
2021/07/31 07:56:22;;;;;;;10.43;7.10;;;28.40;68.70;;;;;;4998464;28;20800;-76
2021/07/31 07:58:53;;;;;;;12.75;7.43;;;28.50;68.70;;;;;;4993791;28;20634;-74
2021/07/31 08:01:19;;;;;;;11.75;7.70;;;28.50;68.70;;;;;;5005851;28;20217;-77
2021/07/31 08:03:44;;;;;;;11.48;7.65;;;28.70;68.20;;;;;;5004189;28;20341;-75
2021/07/31 08:06:16;;;;;;;12.25;7.20;;;28.70;68.20;;;;;;4999254;28;20186;-78
2021/07/31 08:08:42;;;;;;;16.55;7.78;;;28.90;67.90;;;;;;5012101;28;20194;-79
2021/07/31 08:11:08;;;;;;;18.67;8.05;;;28.90;67.60;;;;;;5008752;28;20180;-79
2021/07/31 08:13:34;;;;;;;11.50;6.50;;;29.00;67.00;;;;;;5009405;28;20225;-77
2021/07/31 08:16:00;;;;;;;9.05;7.35;;;29.10;66.70;;;;;;5010527;28;20280;-75
2021/07/31 08:18:25;;;;;;;9.70;7.95;;;29.20;67.10;;;;;;5008435;28;20189;-76
2021/07/31 08:20:51;;;;;;;12.95;6.68;;;29.30;67.10;;;;;;5007677;28;20188;-76
2021/07/31 08:23:17;;;;;;;9.77;7.05;;;29.40;66.90;;;;;;5006981;28;20193;-73
2021/07/31 08:25:46;;;;;;;12.30;7.32;;;29.50;66.60;;;;;;5005694;28;20228;-74
2021/07/31 08:28:11;;;;;;;12.88;8.07;;;29.60;66.70;;;;;;5007667;28;20645;-76
2021/07/31 08:30:37;;;;;;;12.20;7.05;;;29.70;66.50;;;;;;5004457;28;20192;-76
2021/07/31 08:33:03;;;;;;;8.10;6.72;;;29.80;66.50;;;;;;5007253;28;20204;-75
2021/07/31 08:35:28;;;;;;;13.43;7.47;;;30.00;66.10;;;;;;5008339;28;20224;-76
2021/07/31 08:37:54;;;;;;;9.95;7.20;;;30.10;65.50;;;;;;5008674;28;20643;-75
2021/07/31 08:40:21;;;;;;;10.75;7.38;;;30.20;65.40;;;;;;5008546;28;20189;-75
2021/07/31 08:42:47;;;;;;;15.10;7.57;;;30.30;64.80;;;;;;5007110;28;20192;-74
2021/07/31 08:45:13;;;;;;;12.02;7.60;;;30.50;64.90;;;;;;5001369;28;20224;-74
2021/07/31 08:47:39;;;;;;;14.18;7.32;;;30.50;64.20;;;;;;5007074;28;20196;-74
2021/07/31 08:50:10;;;;;;;15.52;7.15;;;30.70;64.10;;;;;;5007952;28;20185;-74
2021/07/31 08:52:36;;;;;;;10.50;7.60;;;30.80;63.40;;;;;;5007017;28;20181;-74
2021/07/31 08:55:02;;;;;;;13.73;7.65;;;30.90;63.00;;;;;;5008724;28;20189;-74
2021/07/31 08:57:28;;;;;;;10.70;7.43;;;31.00;63.50;;;;;;5007975;28;20188;-74
2021/07/31 08:59:53;;;;;;;10.52;6.97;;;31.20;63.20;;;;;;5008314;28;20192;-74
2021/07/31 09:02:20;;;;;;;12.68;7.85;;;31.30;63.60;;;;;;5005706;28;20184;-75
2021/07/31 09:04:45;;;;;;;14.35;8.05;;;31.40;61.90;;;;;;5003568;28;20683;-74
2021/07/31 09:07:13;;;;;;;8.27;7.10;;;31.50;62.70;;;;;;5007894;28;20185;-74
2021/07/31 09:09:38;;;;;;;10.35;7.63;;;31.60;62.30;;;;;;5006455;28;20210;-74
2021/07/31 09:12:07;;;;;;;13.35;7.57;;;31.80;61.80;;;;;;5007899;28;20571;-75
2021/07/31 09:14:34;;;;;;;11.77;7.03;;;31.90;61.90;;;;;;5008074;28;20200;-74
2021/07/31 09:17:01;;;;;;;12.00;7.55;;;32.00;61.00;;;;;;5005583;28;20182;-74
2021/07/31 09:19:28;;;;;;;10.65;6.97;;;32.10;61.80;;;;;;5006932;28;20196;-75
2021/07/31 09:22:05;;;;;;;14.02;7.10;;;32.20;61.90;;;;;;5005424;28;20592;-74
2021/07/31 09:24:31;;;;;;;15.27;7.53;;;32.40;61.60;;;;;;5008019;28;20303;-74
2021/07/31 09:26:57;;;;;;;12.45;7.93;;;32.50;60.10;;;;;;5006582;28;20287;-74
2021/07/31 09:29:29;;;;;;;16.48;7.55;;;32.60;59.60;;;;;;5007181;28;20636;-74
2021/07/31 09:31:57;;;;;;;8.15;7.13;;;32.80;60.30;;;;;;5005965;28;20272;-74
2021/07/31 09:34:33;;;;;;;10.15;7.40;;;33.00;59.40;;;;;;5005850;28;20259;-74
2021/07/31 09:37:14;;;;;;;12.13;6.85;;;33.10;59.60;;;;;;5005195;28;20192;-74
2021/07/31 09:40:02;;;;;;;15.63;7.43;;;33.30;59.80;;;;;;5000727;28;20188;-74
2021/07/31 09:42:35;;;;;;;8.18;6.60;;;33.50;59.20;;;;;;5004832;28;20213;-74
2021/07/31 09:45:07;;;;;;;11.02;6.65;;;33.70;58.40;;;;;;5006188;28;20243;-74
2021/07/31 09:47:33;;;;;;;9.88;6.90;;;33.80;58.20;;;;;;5007394;28;20187;-74
2021/07/31 09:49:59;;;;;;;12.60;7.13;;;34.10;58.20;;;;;;5005929;28;20192;-74
2021/07/31 09:52:26;;;;;;;7.20;6.30;;;34.30;56.40;;;;;;5006811;28;20191;-74
2021/07/31 09:54:59;;;;;;;13.73;7.20;;;34.50;56.70;;;;;;5005427;28;20690;-74
2021/07/31 09:57:27;;;;;;;10.77;6.75;;;34.70;56.50;;;;;;5006062;28;20674;-75
2021/07/31 09:59:57;;;;;;;13.40;7.10;;;35.00;56.20;;;;;;5007576;28;20199;-74
2021/07/31 10:02:23;;;;;;;9.30;6.72;;;35.20;55.50;;;;;;5004927;28;20199;-74
2021/07/31 10:04:52;;;;;;;12.98;6.60;;;35.50;55.00;;;;;;5007023;28;20612;-74
2021/07/31 10:07:18;;;;;;;10.13;5.85;;;35.80;54.70;;;;;;5006791;28;20288;-74
2021/07/31 10:09:53;;;;;;;9.25;6.35;;;36.10;54.80;;;;;;5006235;28;20176;-74
2021/07/31 10:12:24;;;;;;;9.45;6.15;;;36.50;54.50;;;;;;5006822;28;20184;-74
2021/07/31 10:14:50;;;;;;;8.35;6.53;;;37.00;53.20;;;;;;5006080;28;20190;-74
2021/07/31 10:17:16;;;;;;;7.13;5.55;;;37.50;51.70;;;;;;5004314;28;20176;-74
2021/07/31 10:19:46;;;;;;;18.40;6.88;;;38.00;52.50;;;;;;5007239;28;20184;-74
2021/07/31 10:22:14;;;;;;;11.32;6.47;;;38.50;51.20;;;;;;5006061;28;20193;-74
2021/07/31 10:24:59;;;;;;;10.60;6.43;;;39.00;51.70;;;;;;5007249;28;20216;-74
2021/07/31 10:27:25;;;;;;;14.23;6.85;;;39.60;49.40;;;;;;5006960;28;20681;-74
2021/07/31 10:29:55;;;;;;;9.68;6.25;;;40.20;48.80;;;;;;5005971;28;20247;-74
2021/07/31 10:32:23;;;;;;;11.75;6.35;;;40.70;49.20;;;;;;5006079;28;20185;-75
2021/07/31 10:34:59;;;;;;;21.23;6.65;;;41.10;49.30;;;;;;5003711;28;20621;-75
2021/07/31 10:37:31;;;;;;;6.45;5.85;;;41.50;48.70;;;;;;5003313;28;20191;-74
2021/07/31 10:39:59;;;;;;;12.43;6.18;;;41.70;46.90;;;;;;5003109;28;20184;-75
2021/07/31 10:42:24;;;;;;;13.65;6.85;;;41.60;47.20;;;;;;5004523;28;20184;-75
2021/07/31 10:45:15;;;;;;;9.35;6.32;;;41.60;48.20;;;;;;5003155;28;20220;-75
2021/07/31 10:47:45;;;;;;;7.93;5.75;;;41.70;46.60;;;;;;5004495;28;20184;-75
2021/07/31 10:50:25;;;;;;;7.03;6.32;;;42.00;46.50;;;;;;5005477;28;20192;-74
2021/07/31 10:53:00;;;;;;;8.40;5.88;;;42.50;46.90;;;;;;5003917;28;20202;-74
2021/07/31 10:55:37;;;;;;;15.60;6.80;;;42.80;46.40;;;;;;5006484;28;20200;-75
2021/07/31 10:58:13;;;;;;;10.07;5.43;;;43.30;44.60;;;;;;5009993;28;20188;-75
2021/07/31 11:00:41;;;;;;;10.73;6.93;;;43.60;45.80;;;;;;5010649;28;20196;-75
2021/07/31 11:03:14;;;;;;;15.57;6.57;;;43.80;45.00;;;;;;5009954;28;20176;-75
2021/07/31 11:05:51;;;;;;;11.82;6.45;;;43.90;43.60;;;;;;5009520;28;20212;-75
2021/07/31 11:08:21;;;;;;;6.53;5.80;;;43.90;44.40;;;;;;5009614;28;20183;-75
2021/07/31 11:11:00;;;;;;;10.82;6.05;;;43.40;45.80;;;;;;5009718;28;20201;-75
2021/07/31 11:13:26;;;;;;;8.38;6.43;;;43.20;44.10;;;;;;5009456;28;20195;-75
2021/07/31 11:16:07;;;;;;;7.40;6.38;;;42.90;46.10;;;;;;5007757;28;20666;-75
2021/07/31 11:18:36;;;;;;;10.05;6.75;;;42.90;45.20;;;;;;5009334;28;20667;-75
2021/07/31 11:21:19;;;;;;;11.02;5.53;;;43.20;46.80;;;;;;5010032;28;20243;-74
2021/07/31 11:24:04;;;;;;;9.93;5.32;;;43.60;44.10;;;;;;5009170;28;20261;-76
2021/07/31 11:26:49;;;;;;;15.75;6.40;;;43.90;45.30;;;;;;5008476;28;20227;-75
2021/07/31 11:29:20;;;;;;;8.80;6.03;;;44.00;43.80;;;;;;5006384;28;20194;-75
2021/07/31 11:32:11;;;;;;;13.85;6.50;;;44.00;43.90;;;;;;5007390;28;20242;-76
2021/07/31 11:34:37;;;;;;;7.78;5.80;;;44.40;44.00;;;;;;5007826;28;20247;-76
2021/07/31 11:37:03;;;;;;;14.98;6.60;;;44.70;44.80;;;;;;5009373;28;20185;-76
2021/07/31 11:39:29;;;;;;;10.80;6.22;;;44.80;43.90;;;;;;5007325;28;20199;-76
2021/07/31 11:41:58;;;;;;;13.52;6.20;;;44.90;44.30;;;;;;5008883;28;20184;-76
2021/07/31 11:44:41;;;;;;;9.88;6.47;;;45.00;44.30;;;;;;5004366;28;20254;-75
2021/07/31 11:47:08;;;;;;;8.90;6.22;;;45.20;43.10;;;;;;5009356;28;20188;-76
2021/07/31 11:49:35;;;;;;;8.32;6.82;;;45.30;43.40;;;;;;5009842;28;20208;-75
2021/07/31 11:52:06;;;;;;;14.63;7.15;;;45.10;43.40;;;;;;5007434;28;20604;-75
2021/07/31 11:54:33;;;;;;;12.93;6.93;;;44.60;43.50;;;;;;5008477;28;20246;-75
2021/07/31 11:57:01;;;;;;;11.05;6.10;;;43.90;45.10;;;;;;5009440;28;20272;-76
2021/07/31 11:59:30;;;;;;;9.25;6.07;;;43.30;46.00;;;;;;5008618;28;20196;-76
2021/07/31 12:01:57;;;;;;;12.35;6.40;;;42.60;46.30;;;;;;5008049;28;20208;-75
2021/07/31 12:04:51;;;;;;;10.88;6.85;;;42.10;47.10;;;;;;5009419;28;20235;-76
2021/07/31 12:07:26;;;;;;;7.88;6.22;;;41.50;44.90;;;;;;5005468;28;20185;-76
2021/07/31 12:10:13;;;;;;;9.80;6.53;;;41.40;46.10;;;;;;5037655;28;20199;-76
2021/07/31 12:12:41;;;;;;;16.48;7.13;;;41.30;45.30;;;;;;5005024;28;20188;-75
2021/07/31 12:15:12;;;;;;;7.85;6.15;;;41.10;47.00;;;;;;5006867;28;20870;-76
2021/07/31 12:17:39;;;;;;;14.77;6.30;;;40.90;47.00;;;;;;5008150;28;20195;-76
2021/07/31 12:20:08;;;;;;;9.45;6.38;;;40.70;47.50;;;;;;5007762;28;20263;-76
2021/07/31 12:22:35;;;;;;;10.00;7.00;;;40.50;47.60;;;;;;5008286;28;20177;-76
2021/07/31 12:25:14;;;;;;;8.25;6.38;;;40.40;47.80;;;;;;5003974;28;20204;-75
2021/07/31 12:27:49;;;;;;;16.65;6.57;;;40.60;47.10;;;;;;5003845;28;20812;-74
2021/07/31 12:30:51;;;;;;;7.40;6.30;;;41.30;46.90;;;;;;5007433;28;20295;-75
2021/07/31 12:33:19;;;;;;;11.30;6.20;;;42.10;46.70;;;;;;4965037;28;20570;-75
2021/07/31 12:36:01;;;;;;;10.05;5.35;;;43.10;46.20;;;;;;4964569;28;20734;-74
2021/07/31 12:38:28;;;;;;;7.70;5.65;;;43.70;45.60;;;;;;4965176;28;20679;-73
2021/07/31 12:41:03;;;;;;;7.40;5.70;;;44.50;45.40;;;;;;4965288;28;20185;-73
2021/07/31 12:43:30;;;;;;;10.25;5.82;;;45.10;44.90;;;;;;4963953;28;20739;-74
2021/07/31 12:46:00;;;;;;;9.63;5.70;;;45.40;45.20;;;;;;4960676;28;20213;-74